sensor_id;sensor_type;location;lat;lon;timestamp;P1;durP1;ratioP1;P2;durP2;ratioP2
22152;SDS011;11242;50.536;12.688;2023-08-07T00:00:07;1.55;;;1.45;;
22152;SDS011;11242;50.536;12.688;2023-08-07T00:02:45;1.70;;;1.60;;
22152;SDS011;11242;50.536;12.688;2023-08-07T00:05:25;1.67;;;1.58;;
22152;SDS011;11242;50.536;12.688;2023-08-07T00:08:01;1.90;;;1.80;;
22152;SDS011;11242;50.536;12.688;2023-08-07T00:10:39;1.90;;;1.80;;
22152;SDS011;11242;50.536;12.688;2023-08-07T00:13:42;1.58;;;1.48;;
22152;SDS011;11242;50.536;12.688;2023-08-07T00:16:23;1.40;;;1.30;;
22152;SDS011;11242;50.536;12.688;2023-08-07T00:19:05;2.00;;;1.45;;
22152;SDS011;11242;50.536;12.688;2023-08-07T00:24:28;1.13;;;1.10;;
22152;SDS011;11242;50.536;12.688;2023-08-07T00:27:12;1.10;;;1.10;;
22152;SDS011;11242;50.536;12.688;2023-08-07T00:29:50;1.23;;;1.00;;
22152;SDS011;11242;50.536;12.688;2023-08-07T00:32:40;0.93;;;0.93;;
22152;SDS011;11242;50.536;12.688;2023-08-07T00:35:15;1.02;;;0.95;;
22152;SDS011;11242;50.536;12.688;2023-08-07T00:37:53;0.90;;;0.90;;
22152;SDS011;11242;50.536;12.688;2023-08-07T00:40:38;1.35;;;1.02;;
22152;SDS011;11242;50.536;12.688;2023-08-07T00:43:23;0.90;;;0.90;;
22152;SDS011;11242;50.536;12.688;2023-08-07T00:46:05;2.08;;;0.85;;
22152;SDS011;11242;50.536;12.688;2023-08-07T00:48:47;0.90;;;0.90;;
22152;SDS011;11242;50.536;12.688;2023-08-07T00:51:27;0.80;;;0.80;;
22152;SDS011;11242;50.536;12.688;2023-08-07T00:54:07;1.00;;;1.00;;
22152;SDS011;11242;50.536;12.688;2023-08-07T00:56:54;1.52;;;1.00;;
22152;SDS011;11242;50.536;12.688;2023-08-07T00:59:36;0.98;;;0.98;;
22152;SDS011;11242;50.536;12.688;2023-08-07T01:02:16;1.17;;;1.13;;
22152;SDS011;11242;50.536;12.688;2023-08-07T01:04:59;1.55;;;1.20;;
22152;SDS011;11242;50.536;12.688;2023-08-07T01:07:43;1.80;;;1.70;;
22152;SDS011;11242;50.536;12.688;2023-08-07T01:10:54;1.67;;;1.58;;
22152;SDS011;11242;50.536;12.688;2023-08-07T01:17:05;1.75;;;1.60;;
22152;SDS011;11242;50.536;12.688;2023-08-07T01:20:04;1.75;;;1.65;;
22152;SDS011;11242;50.536;12.688;2023-08-07T01:22:46;1.83;;;1.70;;
22152;SDS011;11242;50.536;12.688;2023-08-07T01:25:31;1.83;;;1.73;;
22152;SDS011;11242;50.536;12.688;2023-08-07T01:28:18;1.75;;;1.65;;
22152;SDS011;11242;50.536;12.688;2023-08-07T01:31:10;1.85;;;1.75;;
22152;SDS011;11242;50.536;12.688;2023-08-07T01:33:55;1.60;;;1.50;;
22152;SDS011;11242;50.536;12.688;2023-08-07T01:36:41;1.98;;;1.88;;
22152;SDS011;11242;50.536;12.688;2023-08-07T01:39:16;1.73;;;1.63;;
22152;SDS011;11242;50.536;12.688;2023-08-07T01:41:58;1.90;;;1.80;;
22152;SDS011;11242;50.536;12.688;2023-08-07T01:44:40;1.80;;;1.52;;
22152;SDS011;11242;50.536;12.688;2023-08-07T01:47:20;1.60;;;1.50;;
22152;SDS011;11242;50.536;12.688;2023-08-07T01:50:00;1.63;;;1.52;;
22152;SDS011;11242;50.536;12.688;2023-08-07T01:52:42;1.55;;;1.45;;
22152;SDS011;11242;50.536;12.688;2023-08-07T01:55:25;1.77;;;1.67;;
22152;SDS011;11242;50.536;12.688;2023-08-07T01:58:07;1.50;;;1.40;;
22152;SDS011;11242;50.536;12.688;2023-08-07T02:00:47;1.90;;;1.80;;
22152;SDS011;11242;50.536;12.688;2023-08-07T02:03:27;1.50;;;1.40;;
22152;SDS011;11242;50.536;12.688;2023-08-07T02:08:46;1.40;;;1.30;;
22152;SDS011;11242;50.536;12.688;2023-08-07T02:11:27;1.67;;;1.58;;
22152;SDS011;11242;50.536;12.688;2023-08-07T02:14:08;1.70;;;1.60;;
22152;SDS011;11242;50.536;12.688;2023-08-07T02:16:54;2.53;;;2.33;;
22152;SDS011;11242;50.536;12.688;2023-08-07T02:19:32;2.40;;;2.20;;
22152;SDS011;11242;50.536;12.688;2023-08-07T02:22:17;2.55;;;2.25;;
22152;SDS011;11242;50.536;12.688;2023-08-07T02:24:51;2.40;;;2.20;;
22152;SDS011;11242;50.536;12.688;2023-08-07T02:27:29;2.35;;;2.08;;
22152;SDS011;11242;50.536;12.688;2023-08-07T02:30:07;2.00;;;1.90;;
22152;SDS011;11242;50.536;12.688;2023-08-07T02:32:39;2.00;;;1.80;;
22152;SDS011;11242;50.536;12.688;2023-08-07T02:35:22;2.35;;;2.15;;
22152;SDS011;11242;50.536;12.688;2023-08-07T02:38:04;1.85;;;1.75;;
22152;SDS011;11242;50.536;12.688;2023-08-07T02:40:46;1.58;;;1.48;;
22152;SDS011;11242;50.536;12.688;2023-08-07T02:43:21;2.05;;;1.95;;
22152;SDS011;11242;50.536;12.688;2023-08-07T02:46:08;2.38;;;2.17;;
22152;SDS011;11242;50.536;12.688;2023-08-07T02:48:48;2.90;;;1.70;;
22152;SDS011;11242;50.536;12.688;2023-08-07T02:51:32;1.40;;;1.30;;
22152;SDS011;11242;50.536;12.688;2023-08-07T02:54:13;1.15;;;0.98;;
22152;SDS011;11242;50.536;12.688;2023-08-07T02:56:52;1.58;;;1.48;;
22152;SDS011;11242;50.536;12.688;2023-08-07T02:59:40;2.88;;;1.95;;
22152;SDS011;11242;50.536;12.688;2023-08-07T03:02:25;5.32;;;2.85;;
22152;SDS011;11242;50.536;12.688;2023-08-07T03:04:58;3.30;;;3.00;;
22152;SDS011;11242;50.536;12.688;2023-08-07T03:07:40;2.95;;;2.70;;
22152;SDS011;11242;50.536;12.688;2023-08-07T03:10:21;2.60;;;2.40;;
22152;SDS011;11242;50.536;12.688;2023-08-07T03:13:00;3.47;;;3.17;;
22152;SDS011;11242;50.536;12.688;2023-08-07T03:15:41;4.53;;;3.30;;
22152;SDS011;11242;50.536;12.688;2023-08-07T03:21:00;4.20;;;3.80;;
22152;SDS011;11242;50.536;12.688;2023-08-07T03:26:19;3.83;;;3.53;;
22152;SDS011;11242;50.536;12.688;2023-08-07T03:28:47;4.95;;;3.65;;
22152;SDS011;11242;50.536;12.688;2023-08-07T03:31:15;4.75;;;3.45;;
22152;SDS011;11242;50.536;12.688;2023-08-07T03:33:43;4.38;;;2.90;;
22152;SDS011;11242;50.536;12.688;2023-08-07T03:36:09;3.17;;;2.88;;
22152;SDS011;11242;50.536;12.688;2023-08-07T03:38:36;3.58;;;3.28;;
22152;SDS011;11242;50.536;12.688;2023-08-07T03:41:04;4.43;;;3.92;;
22152;SDS011;11242;50.536;12.688;2023-08-07T03:43:32;6.82;;;4.80;;
22152;SDS011;11242;50.536;12.688;2023-08-07T03:46:00;4.25;;;3.85;;
22152;SDS011;11242;50.536;12.688;2023-08-07T03:48:30;6.38;;;4.45;;
22152;SDS011;11242;50.536;12.688;2023-08-07T03:51:03;4.68;;;4.25;;
22152;SDS011;11242;50.536;12.688;2023-08-07T03:53:38;5.40;;;4.88;;
22152;SDS011;11242;50.536;12.688;2023-08-07T03:56:05;6.45;;;4.88;;
22152;SDS011;11242;50.536;12.688;2023-08-07T03:58:34;6.20;;;5.55;;
22152;SDS011;11242;50.536;12.688;2023-08-07T04:01:01;6.25;;;5.35;;
22152;SDS011;11242;50.536;12.688;2023-08-07T04:03:31;5.82;;;5.25;;
22152;SDS011;11242;50.536;12.688;2023-08-07T04:06:01;5.63;;;5.13;;
22152;SDS011;11242;50.536;12.688;2023-08-07T04:08:31;8.05;;;5.38;;
22152;SDS011;11242;50.536;12.688;2023-08-07T04:10:58;5.32;;;4.00;;
22152;SDS011;11242;50.536;12.688;2023-08-07T04:13:25;5.40;;;4.28;;
22152;SDS011;11242;50.536;12.688;2023-08-07T04:15:52;4.00;;;3.70;;
22152;SDS011;11242;50.536;12.688;2023-08-07T04:18:20;4.70;;;3.80;;
22152;SDS011;11242;50.536;12.688;2023-08-07T04:20:49;4.28;;;3.53;;
22152;SDS011;11242;50.536;12.688;2023-08-07T04:23:19;5.07;;;4.07;;
22152;SDS011;11242;50.536;12.688;2023-08-07T04:25:47;7.00;;;3.50;;
22152;SDS011;11242;50.536;12.688;2023-08-07T04:28:15;4.53;;;3.17;;
22152;SDS011;11242;50.536;12.688;2023-08-07T04:30:44;5.88;;;3.20;;
22152;SDS011;11242;50.536;12.688;2023-08-07T04:33:22;4.05;;;2.90;;
22152;SDS011;11242;50.536;12.688;2023-08-07T04:35:48;3.30;;;3.00;;
22152;SDS011;11242;50.536;12.688;2023-08-07T04:38:16;4.05;;;3.65;;
22152;SDS011;11242;50.536;12.688;2023-08-07T04:40:46;3.97;;;3.58;;
22152;SDS011;11242;50.536;12.688;2023-08-07T04:43:14;4.40;;;3.88;;
22152;SDS011;11242;50.536;12.688;2023-08-07T04:45:42;5.93;;;3.90;;
22152;SDS011;11242;50.536;12.688;2023-08-07T04:48:11;4.18;;;3.65;;
22152;SDS011;11242;50.536;12.688;2023-08-07T04:50:37;5.97;;;3.75;;
22152;SDS011;11242;50.536;12.688;2023-08-07T04:53:05;4.00;;;3.60;;
22152;SDS011;11242;50.536;12.688;2023-08-07T04:55:34;4.25;;;3.55;;
22152;SDS011;11242;50.536;12.688;2023-08-07T04:58:01;4.35;;;3.70;;
22152;SDS011;11242;50.536;12.688;2023-08-07T05:00:28;4.30;;;3.75;;
22152;SDS011;11242;50.536;12.688;2023-08-07T05:02:56;3.75;;;3.38;;
22152;SDS011;11242;50.536;12.688;2023-08-07T05:05:22;4.03;;;3.45;;
22152;SDS011;11242;50.536;12.688;2023-08-07T05:07:48;4.22;;;3.60;;
22152;SDS011;11242;50.536;12.688;2023-08-07T05:10:14;7.75;;;4.78;;
22152;SDS011;11242;50.536;12.688;2023-08-07T05:12:40;9.95;;;7.75;;
22152;SDS011;11242;50.536;12.688;2023-08-07T05:15:08;4.78;;;4.18;;
22152;SDS011;11242;50.536;12.688;2023-08-07T05:17:34;5.90;;;5.40;;
22152;SDS011;11242;50.536;12.688;2023-08-07T05:20:03;3.53;;;2.70;;
22152;SDS011;11242;50.536;12.688;2023-08-07T05:22:31;3.30;;;3.00;;
22152;SDS011;11242;50.536;12.688;2023-08-07T05:24:59;3.75;;;3.38;;
22152;SDS011;11242;50.536;12.688;2023-08-07T05:27:26;4.35;;;3.88;;
22152;SDS011;11242;50.536;12.688;2023-08-07T05:29:53;5.60;;;4.95;;
22152;SDS011;11242;50.536;12.688;2023-08-07T05:32:21;4.47;;;4.00;;
22152;SDS011;11242;50.536;12.688;2023-08-07T05:34:50;5.93;;;3.92;;
22152;SDS011;11242;50.536;12.688;2023-08-07T05:37:18;6.05;;;4.38;;
22152;SDS011;11242;50.536;12.688;2023-08-07T05:39:43;6.38;;;4.07;;
22152;SDS011;11242;50.536;12.688;2023-08-07T05:42:09;6.05;;;5.18;;
22152;SDS011;11242;50.536;12.688;2023-08-07T05:44:35;8.23;;;5.28;;
22152;SDS011;11242;50.536;12.688;2023-08-07T05:47:02;5.28;;;4.78;;
22152;SDS011;11242;50.536;12.688;2023-08-07T05:49:29;4.60;;;4.10;;
22152;SDS011;11242;50.536;12.688;2023-08-07T05:51:54;6.25;;;5.53;;
22152;SDS011;11242;50.536;12.688;2023-08-07T05:54:20;4.20;;;3.70;;
22152;SDS011;11242;50.536;12.688;2023-08-07T05:56:46;4.93;;;2.88;;
22152;SDS011;11242;50.536;12.688;2023-08-07T05:59:12;4.03;;;3.30;;
22152;SDS011;11242;50.536;12.688;2023-08-07T06:01:38;3.22;;;3.00;;
22152;SDS011;11242;50.536;12.688;2023-08-07T06:04:06;3.70;;;3.40;;
22152;SDS011;11242;50.536;12.688;2023-08-07T06:06:31;3.30;;;3.00;;
22152;SDS011;11242;50.536;12.688;2023-08-07T06:09:00;4.20;;;3.30;;
22152;SDS011;11242;50.536;12.688;2023-08-07T06:11:27;3.08;;;2.78;;
22152;SDS011;11242;50.536;12.688;2023-08-07T06:13:54;2.20;;;2.00;;
22152;SDS011;11242;50.536;12.688;2023-08-07T06:16:20;2.38;;;2.17;;
22152;SDS011;11242;50.536;12.688;2023-08-07T06:18:48;3.50;;;2.25;;
22152;SDS011;11242;50.536;12.688;2023-08-07T06:21:16;1.92;;;1.63;;
22152;SDS011;11242;50.536;12.688;2023-08-07T06:23:55;2.65;;;2.20;;
22152;SDS011;11242;50.536;12.688;2023-08-07T06:26:33;1.70;;;1.60;;
22152;SDS011;11242;50.536;12.688;2023-08-07T06:29:14;1.60;;;1.50;;
22152;SDS011;11242;50.536;12.688;2023-08-07T06:31:51;1.42;;;1.33;;
22152;SDS011;11242;50.536;12.688;2023-08-07T06:34:34;1.50;;;1.40;;
22152;SDS011;11242;50.536;12.688;2023-08-07T06:37:20;2.15;;;2.00;;
22152;SDS011;11242;50.536;12.688;2023-08-07T06:39:58;2.05;;;1.92;;
22152;SDS011;11242;50.536;12.688;2023-08-07T06:42:25;2.38;;;2.17;;
22152;SDS011;11242;50.536;12.688;2023-08-07T06:45:09;2.20;;;2.00;;
22152;SDS011;11242;50.536;12.688;2023-08-07T06:47:38;3.13;;;2.22;;
22152;SDS011;11242;50.536;12.688;2023-08-07T06:50:06;2.10;;;1.88;;
22152;SDS011;11242;50.536;12.688;2023-08-07T06:52:42;2.30;;;2.10;;
22152;SDS011;11242;50.536;12.688;2023-08-07T06:55:15;1.80;;;1.70;;
22152;SDS011;11242;50.536;12.688;2023-08-07T06:57:54;3.40;;;1.92;;
22152;SDS011;11242;50.536;12.688;2023-08-07T07:00:37;2.55;;;2.35;;
22152;SDS011;11242;50.536;12.688;2023-08-07T07:03:10;4.18;;;2.47;;
22152;SDS011;11242;50.536;12.688;2023-08-07T07:05:40;1.92;;;1.80;;
22152;SDS011;11242;50.536;12.688;2023-08-07T07:08:21;1.77;;;1.67;;
22152;SDS011;11242;50.536;12.688;2023-08-07T07:10:59;2.05;;;1.83;;
22152;SDS011;11242;50.536;12.688;2023-08-07T07:13:32;1.92;;;1.80;;
22152;SDS011;11242;50.536;12.688;2023-08-07T07:16:00;1.92;;;1.83;;
22152;SDS011;11242;50.536;12.688;2023-08-07T07:18:37;2.03;;;1.67;;
22152;SDS011;11242;50.536;12.688;2023-08-07T07:21:05;2.00;;;1.90;;
22152;SDS011;11242;50.536;12.688;2023-08-07T07:23:41;2.10;;;1.70;;
22152;SDS011;11242;50.536;12.688;2023-08-07T07:26:14;2.22;;;1.70;;
22152;SDS011;11242;50.536;12.688;2023-08-07T07:28:44;2.40;;;1.60;;
22152;SDS011;11242;50.536;12.688;2023-08-07T07:31:24;2.08;;;1.92;;
22152;SDS011;11242;50.536;12.688;2023-08-07T07:34:05;2.00;;;1.90;;
22152;SDS011;11242;50.536;12.688;2023-08-07T07:36:47;3.97;;;1.48;;
22152;SDS011;11242;50.536;12.688;2023-08-07T07:39:27;3.38;;;1.90;;
22152;SDS011;11242;50.536;12.688;2023-08-07T07:42:04;1.90;;;1.80;;
22152;SDS011;11242;50.536;12.688;2023-08-07T07:44:42;2.15;;;2.03;;
22152;SDS011;11242;50.536;12.688;2023-08-07T07:47:19;2.58;;;2.38;;
22152;SDS011;11242;50.536;12.688;2023-08-07T07:50:06;2.38;;;2.20;;
22152;SDS011;11242;50.536;12.688;2023-08-07T07:52:42;1.95;;;1.85;;
22152;SDS011;11242;50.536;12.688;2023-08-07T07:55:24;3.45;;;2.15;;
22152;SDS011;11242;50.536;12.688;2023-08-07T07:57:58;2.55;;;2.35;;
22152;SDS011;11242;50.536;12.688;2023-08-07T08:00:38;2.10;;;1.90;;
22152;SDS011;11242;50.536;12.688;2023-08-07T08:03:23;2.40;;;2.20;;
22152;SDS011;11242;50.536;12.688;2023-08-07T08:06:02;2.50;;;2.30;;
22152;SDS011;11242;50.536;12.688;2023-08-07T08:08:54;3.47;;;3.00;;
22152;SDS011;11242;50.536;12.688;2023-08-07T08:11:35;2.33;;;2.13;;
22152;SDS011;11242;50.536;12.688;2023-08-07T08:14:18;3.53;;;2.10;;
22152;SDS011;11242;50.536;12.688;2023-08-07T08:17:00;1.88;;;1.77;;
22152;SDS011;11242;50.536;12.688;2023-08-07T08:19:34;2.35;;;1.90;;
22152;SDS011;11242;50.536;12.688;2023-08-07T08:22:11;2.10;;;1.90;;
22152;SDS011;11242;50.536;12.688;2023-08-07T08:24:48;2.67;;;2.10;;
22152;SDS011;11242;50.536;12.688;2023-08-07T08:27:31;2.50;;;1.52;;
22152;SDS011;11242;50.536;12.688;2023-08-07T08:30:14;1.65;;;1.48;;
22152;SDS011;11242;50.536;12.688;2023-08-07T08:32:49;1.80;;;1.70;;
22152;SDS011;11242;50.536;12.688;2023-08-07T08:35:29;1.52;;;1.40;;
22152;SDS011;11242;50.536;12.688;2023-08-07T08:38:12;1.60;;;1.50;;
22152;SDS011;11242;50.536;12.688;2023-08-07T08:40:51;1.88;;;1.70;;
22152;SDS011;11242;50.536;12.688;2023-08-07T08:43:34;1.80;;;1.70;;
22152;SDS011;11242;50.536;12.688;2023-08-07T08:46:16;1.63;;;1.52;;
22152;SDS011;11242;50.536;12.688;2023-08-07T08:49:01;1.60;;;1.50;;
22152;SDS011;11242;50.536;12.688;2023-08-07T08:51:43;2.83;;;1.67;;
22152;SDS011;11242;50.536;12.688;2023-08-07T08:54:24;2.08;;;1.70;;
22152;SDS011;11242;50.536;12.688;2023-08-07T08:57:06;1.63;;;1.52;;
22152;SDS011;11242;50.536;12.688;2023-08-07T08:59:50;1.73;;;1.50;;
22152;SDS011;11242;50.536;12.688;2023-08-07T09:02:33;2.08;;;1.58;;
22152;SDS011;11242;50.536;12.688;2023-08-07T09:05:14;1.58;;;1.48;;
22152;SDS011;11242;50.536;12.688;2023-08-07T09:07:55;1.52;;;1.42;;
22152;SDS011;11242;50.536;12.688;2023-08-07T09:10:45;2.75;;;1.48;;
22152;SDS011;11242;50.536;12.688;2023-08-07T09:13:27;1.30;;;1.25;;
22152;SDS011;11242;50.536;12.688;2023-08-07T09:16:10;4.47;;;2.17;;
22152;SDS011;11242;50.536;12.688;2023-08-07T09:18:52;1.50;;;1.40;;
22152;SDS011;11242;50.536;12.688;2023-08-07T09:21:36;1.92;;;1.80;;
22152;SDS011;11242;50.536;12.688;2023-08-07T09:24:11;1.70;;;1.60;;
22152;SDS011;11242;50.536;12.688;2023-08-07T09:26:50;2.28;;;2.08;;
22152;SDS011;11242;50.536;12.688;2023-08-07T09:29:35;2.47;;;2.00;;
22152;SDS011;11242;50.536;12.688;2023-08-07T09:32:19;2.40;;;2.20;;
22152;SDS011;11242;50.536;12.688;2023-08-07T09:35:05;1.50;;;1.40;;
22152;SDS011;11242;50.536;12.688;2023-08-07T09:37:42;1.58;;;1.48;;
22152;SDS011;11242;50.536;12.688;2023-08-07T09:40:52;2.07;;;1.70;;
22152;SDS011;11242;50.536;12.688;2023-08-07T09:43:40;2.88;;;1.33;;
22152;SDS011;11242;50.536;12.688;2023-08-07T09:46:12;1.45;;;1.20;;
22152;SDS011;11242;50.536;12.688;2023-08-07T09:48:57;1.55;;;1.45;;
22152;SDS011;11242;50.536;12.688;2023-08-07T09:54:23;1.67;;;1.20;;
22152;SDS011;11242;50.536;12.688;2023-08-07T09:57:04;1.42;;;1.30;;
22152;SDS011;11242;50.536;12.688;2023-08-07T09:59:48;1.50;;;1.40;;
22152;SDS011;11242;50.536;12.688;2023-08-07T10:02:42;1.55;;;1.40;;
22152;SDS011;11242;50.536;12.688;2023-08-07T10:05:23;1.30;;;1.20;;
22152;SDS011;11242;50.536;12.688;2023-08-07T10:08:15;1.13;;;1.10;;
22152;SDS011;11242;50.536;12.688;2023-08-07T10:10:56;1.80;;;1.33;;
22152;SDS011;11242;50.536;12.688;2023-08-07T10:13:38;1.50;;;1.40;;
22152;SDS011;11242;50.536;12.688;2023-08-07T10:16:12;1.10;;;1.00;;
22152;SDS011;11242;50.536;12.688;2023-08-07T10:18:54;1.00;;;1.00;;
22152;SDS011;11242;50.536;12.688;2023-08-07T10:21:28;1.40;;;1.30;;
22152;SDS011;11242;50.536;12.688;2023-08-07T10:24:10;0.80;;;0.80;;
22152;SDS011;11242;50.536;12.688;2023-08-07T10:26:52;1.38;;;1.02;;
22152;SDS011;11242;50.536;12.688;2023-08-07T10:29:36;1.23;;;1.13;;
22152;SDS011;11242;50.536;12.688;2023-08-07T10:32:21;0.93;;;0.90;;
22152;SDS011;11242;50.536;12.688;2023-08-07T10:35:04;4.05;;;1.15;;
22152;SDS011;11242;50.536;12.688;2023-08-07T10:37:47;0.90;;;0.90;;
22152;SDS011;11242;50.536;12.688;2023-08-07T10:40:25;0.80;;;0.80;;
22152;SDS011;11242;50.536;12.688;2023-08-07T10:43:13;0.80;;;0.80;;
22152;SDS011;11242;50.536;12.688;2023-08-07T10:46:05;0.75;;;0.70;;
22152;SDS011;11242;50.536;12.688;2023-08-07T10:48:46;0.85;;;0.85;;
22152;SDS011;11242;50.536;12.688;2023-08-07T10:51:37;0.80;;;0.80;;
22152;SDS011;11242;50.536;12.688;2023-08-07T10:54:19;0.70;;;0.70;;
22152;SDS011;11242;50.536;12.688;2023-08-07T10:57:01;5.15;;;1.23;;
22152;SDS011;11242;50.536;12.688;2023-08-07T11:02:47;1.50;;;1.40;;
22152;SDS011;11242;50.536;12.688;2023-08-07T11:08:04;0.90;;;0.90;;
22152;SDS011;11242;50.536;12.688;2023-08-07T11:10:38;0.80;;;0.80;;
22152;SDS011;11242;50.536;12.688;2023-08-07T11:13:08;0.85;;;0.82;;
22152;SDS011;11242;50.536;12.688;2023-08-07T11:15:43;0.93;;;0.90;;
22152;SDS011;11242;50.536;12.688;2023-08-07T11:18:24;0.80;;;0.80;;
22152;SDS011;11242;50.536;12.688;2023-08-07T11:21:05;0.80;;;0.80;;
22152;SDS011;11242;50.536;12.688;2023-08-07T11:23:45;0.90;;;0.90;;
22152;SDS011;11242;50.536;12.688;2023-08-07T11:26:31;1.30;;;1.20;;
22152;SDS011;11242;50.536;12.688;2023-08-07T11:29:17;0.80;;;0.80;;
22152;SDS011;11242;50.536;12.688;2023-08-07T11:31:57;1.45;;;0.90;;
22152;SDS011;11242;50.536;12.688;2023-08-07T11:34:39;0.88;;;0.88;;
22152;SDS011;11242;50.536;12.688;2023-08-07T11:37:23;0.80;;;0.80;;
22152;SDS011;11242;50.536;12.688;2023-08-07T11:40:04;5.20;;;1.40;;
22152;SDS011;11242;50.536;12.688;2023-08-07T11:42:43;0.98;;;0.88;;
22152;SDS011;11242;50.536;12.688;2023-08-07T11:45:21;1.50;;;1.00;;
22152;SDS011;11242;50.536;12.688;2023-08-07T11:47:52;0.80;;;0.80;;
22152;SDS011;11242;50.536;12.688;2023-08-07T11:50:24;1.30;;;1.10;;
22152;SDS011;11242;50.536;12.688;2023-08-07T11:52:55;1.10;;;1.00;;
22152;SDS011;11242;50.536;12.688;2023-08-07T11:55:34;1.70;;;1.10;;
22152;SDS011;11242;50.536;12.688;2023-08-07T11:58:04;0.93;;;0.93;;
22152;SDS011;11242;50.536;12.688;2023-08-07T12:00:41;0.70;;;0.70;;
22152;SDS011;11242;50.536;12.688;2023-08-07T12:03:29;0.70;;;0.70;;
22152;SDS011;11242;50.536;12.688;2023-08-07T12:06:02;0.80;;;0.80;;
22152;SDS011;11242;50.536;12.688;2023-08-07T12:08:41;0.60;;;0.60;;
22152;SDS011;11242;50.536;12.688;2023-08-07T12:11:16;0.60;;;0.60;;
22152;SDS011;11242;50.536;12.688;2023-08-07T12:13:44;0.80;;;0.80;;
22152;SDS011;11242;50.536;12.688;2023-08-07T12:16:13;1.75;;;0.70;;
22152;SDS011;11242;50.536;12.688;2023-08-07T12:18:45;1.20;;;0.60;;
22152;SDS011;11242;50.536;12.688;2023-08-07T12:21:27;1.47;;;0.57;;
22152;SDS011;11242;50.536;12.688;2023-08-07T12:24:08;0.50;;;0.50;;
22152;SDS011;11242;50.536;12.688;2023-08-07T12:26:46;0.65;;;0.65;;
22152;SDS011;11242;50.536;12.688;2023-08-07T12:29:27;2.47;;;0.80;;
22152;SDS011;11242;50.536;12.688;2023-08-07T12:32:07;5.25;;;1.75;;
22152;SDS011;11242;50.536;12.688;2023-08-07T12:34:49;3.33;;;2.42;;
22152;SDS011;11242;50.536;12.688;2023-08-07T12:37:29;10.55;;;6.82;;
22152;SDS011;11242;50.536;12.688;2023-08-07T12:39:58;1.20;;;1.10;;
22152;SDS011;11242;50.536;12.688;2023-08-07T12:42:38;1.80;;;1.30;;
22152;SDS011;11242;50.536;12.688;2023-08-07T12:45:14;0.90;;;0.90;;
22152;SDS011;11242;50.536;12.688;2023-08-07T12:47:48;1.13;;;1.13;;
22152;SDS011;11242;50.536;12.688;2023-08-07T12:50:38;1.50;;;1.40;;
22152;SDS011;11242;50.536;12.688;2023-08-07T12:53:12;2.13;;;1.70;;
22152;SDS011;11242;50.536;12.688;2023-08-07T12:55:51;1.65;;;1.55;;
22152;SDS011;11242;50.536;12.688;2023-08-07T12:58:26;1.55;;;0.80;;
22152;SDS011;11242;50.536;12.688;2023-08-07T13:01:01;0.80;;;0.80;;
22152;SDS011;11242;50.536;12.688;2023-08-07T13:03:39;1.35;;;1.25;;
22152;SDS011;11242;50.536;12.688;2023-08-07T13:06:17;2.45;;;1.40;;
22152;SDS011;11242;50.536;12.688;2023-08-07T13:09:02;1.40;;;1.30;;
22152;SDS011;11242;50.536;12.688;2023-08-07T13:11:45;0.85;;;0.80;;
22152;SDS011;11242;50.536;12.688;2023-08-07T13:14:19;1.77;;;0.88;;
22152;SDS011;11242;50.536;12.688;2023-08-07T13:16:54;1.15;;;1.05;;
22152;SDS011;11242;50.536;12.688;2023-08-07T13:19:26;0.93;;;0.90;;
22152;SDS011;11242;50.536;12.688;2023-08-07T13:21:56;2.08;;;1.60;;
22152;SDS011;11242;50.536;12.688;2023-08-07T13:24:34;0.90;;;0.90;;
22152;SDS011;11242;50.536;12.688;2023-08-07T13:27:11;2.30;;;2.15;;
22152;SDS011;11242;50.536;12.688;2023-08-07T13:29:39;1.08;;;0.95;;
22152;SDS011;11242;50.536;12.688;2023-08-07T13:32:08;1.40;;;1.30;;
22152;SDS011;11242;50.536;12.688;2023-08-07T13:34:38;1.20;;;1.13;;
22152;SDS011;11242;50.536;12.688;2023-08-07T13:37:11;0.85;;;0.85;;
22152;SDS011;11242;50.536;12.688;2023-08-07T13:39:48;1.15;;;1.05;;
22152;SDS011;11242;50.536;12.688;2023-08-07T13:42:32;24.85;;;2.20;;
22152;SDS011;11242;50.536;12.688;2023-08-07T13:45:12;1.27;;;1.05;;
22152;SDS011;11242;50.536;12.688;2023-08-07T13:47:42;45.45;;;3.58;;
22152;SDS011;11242;50.536;12.688;2023-08-07T13:50:15;0.70;;;0.70;;
22152;SDS011;11242;50.536;12.688;2023-08-07T13:52:43;1.92;;;0.73;;
22152;SDS011;11242;50.536;12.688;2023-08-07T13:55:12;2.33;;;0.95;;
22152;SDS011;11242;50.536;12.688;2023-08-07T13:57:42;15.15;;;1.50;;
22152;SDS011;11242;50.536;12.688;2023-08-07T14:00:13;3.53;;;1.00;;
22152;SDS011;11242;50.536;12.688;2023-08-07T14:02:42;2.60;;;0.95;;
22152;SDS011;11242;50.536;12.688;2023-08-07T14:05:09;0.82;;;0.80;;
22152;SDS011;11242;50.536;12.688;2023-08-07T14:07:41;0.70;;;0.70;;
22152;SDS011;11242;50.536;12.688;2023-08-07T14:10:12;1.30;;;0.82;;
22152;SDS011;11242;50.536;12.688;2023-08-07T14:12:38;2.65;;;1.05;;
22152;SDS011;11242;50.536;12.688;2023-08-07T14:15:07;0.70;;;0.70;;
22152;SDS011;11242;50.536;12.688;2023-08-07T14:17:36;1.10;;;1.00;;
22152;SDS011;11242;50.536;12.688;2023-08-07T14:20:11;2.10;;;0.98;;
22152;SDS011;11242;50.536;12.688;2023-08-07T14:22:41;1.70;;;1.60;;
22152;SDS011;11242;50.536;12.688;2023-08-07T14:25:09;1.60;;;1.50;;
22152;SDS011;11242;50.536;12.688;2023-08-07T14:27:38;1.50;;;1.40;;
22152;SDS011;11242;50.536;12.688;2023-08-07T14:30:05;2.88;;;1.92;;
22152;SDS011;11242;50.536;12.688;2023-08-07T14:32:34;2.75;;;1.60;;
22152;SDS011;11242;50.536;12.688;2023-08-07T14:35:00;3.28;;;2.40;;
22152;SDS011;11242;50.536;12.688;2023-08-07T14:37:49;2.83;;;1.95;;
22152;SDS011;11242;50.536;12.688;2023-08-07T14:40:16;2.08;;;1.88;;
22152;SDS011;11242;50.536;12.688;2023-08-07T14:42:42;3.13;;;2.75;;
22152;SDS011;11242;50.536;12.688;2023-08-07T14:45:15;1.90;;;1.80;;
22152;SDS011;11242;50.536;12.688;2023-08-07T14:47:43;3.03;;;2.72;;
22152;SDS011;11242;50.536;12.688;2023-08-07T14:50:17;1.80;;;1.70;;
22152;SDS011;11242;50.536;12.688;2023-08-07T14:52:45;2.30;;;2.10;;
22152;SDS011;11242;50.536;12.688;2023-08-07T14:55:16;2.90;;;2.70;;
22152;SDS011;11242;50.536;12.688;2023-08-07T14:57:43;3.60;;;2.40;;
22152;SDS011;11242;50.536;12.688;2023-08-07T15:00:13;1.60;;;1.50;;
22152;SDS011;11242;50.536;12.688;2023-08-07T15:02:44;2.97;;;2.38;;
22152;SDS011;11242;50.536;12.688;2023-08-07T15:05:13;2.17;;;1.92;;
22152;SDS011;11242;50.536;12.688;2023-08-07T15:07:44;3.30;;;3.00;;
22152;SDS011;11242;50.536;12.688;2023-08-07T15:10:15;2.55;;;2.35;;
22152;SDS011;11242;50.536;12.688;2023-08-07T15:12:43;2.20;;;1.50;;
22152;SDS011;11242;50.536;12.688;2023-08-07T15:15:12;2.47;;;1.40;;
22152;SDS011;11242;50.536;12.688;2023-08-07T15:17:42;1.35;;;1.25;;
22152;SDS011;11242;50.536;12.688;2023-08-07T15:20:13;1.63;;;1.52;;
22152;SDS011;11242;50.536;12.688;2023-08-07T15:22:46;1.33;;;1.23;;
22152;SDS011;11242;50.536;12.688;2023-08-07T15:25:16;3.80;;;1.60;;
22152;SDS011;11242;50.536;12.688;2023-08-07T15:27:48;1.90;;;1.80;;
22152;SDS011;11242;50.536;12.688;2023-08-07T15:30:27;2.45;;;2.25;;
22152;SDS011;11242;50.536;12.688;2023-08-07T15:32:57;3.22;;;2.92;;
22152;SDS011;11242;50.536;12.688;2023-08-07T15:35:28;13.02;;;1.92;;
22152;SDS011;11242;50.536;12.688;2023-08-07T15:37:58;1.30;;;1.20;;
22152;SDS011;11242;50.536;12.688;2023-08-07T15:40:26;3.28;;;2.38;;
22152;SDS011;11242;50.536;12.688;2023-08-07T15:42:53;1.60;;;1.50;;
22152;SDS011;11242;50.536;12.688;2023-08-07T15:45:29;1.75;;;1.65;;
22152;SDS011;11242;50.536;12.688;2023-08-07T15:48:00;1.13;;;1.10;;